Decoded Metar for PAYA (YAKUTAT in AK, USA) (IATA:YAK) | Meteo·Mobile Aviation Weather
aviador You're here:

PAYA Decoded Metar

YAKUTAT in AK, USA
Report Time2019-09-21 09:19:00
UTC Time2019-09-21 09:39:31
Flight Rules mvfr MVFR
Wind120° at 03 kt
W.Decomp.*RWY 11: 3.0 kt HW 0.5 kt LCW
RWY 02: 0.5 kt HW 3.0 kt RCW
Visibility9999 m
Phenomena:N/A
Clouds:Broken 017 Hf
Overcast 038 Hf
Ceiling1,700 ft
Temp12°C (ISA -3)
Dew Point12°C (100% RH)
AAT11.5°C
QNH993 hPa
Density Alt558 ft
Elevation36 ft
Report Wrong Elevation
Raw Report
PAYA 210919Z AUTO 12003KT 10SM BKN017 OVC038 12/12 A2931=

Extra information for PAYA:More info

Metar Taf Metar & Taf Last 4 Metars F.Rules Stats Wind Profile Meteogram Temp Stats Airport Information Weather charts Add Link Nearby VenuesMetar ALERT Operation Metar Decoded Social comments

AIRNAV info for PAYA